Time;durP1;ratioP1;P1;durP2;ratioP2;P2;SDS_P1;SDS_P2;PMS_P1;PMS_P2;Temp;Humidity;BMP_temperature;BMP_pressure;BME280_temperature;BME280_humidity;BME280_pressure;Samples;Min_cycle;Max_cycle;Signal;HPM_P1;HPM_P2
2021/01/14 00:02:19;;;;;;;16.00;5.65;;;4.80;63.40;;;;;;5013682;28;20428;-73
2021/01/14 00:04:45;;;;;;;16.42;6.13;;;4.90;63.60;;;;;;5013956;28;20373;-72
2021/01/14 00:07:10;;;;;;;21.50;6.07;;;4.90;62.20;;;;;;5014208;28;20391;-72
2021/01/14 00:09:36;;;;;;;16.20;5.40;;;4.80;62.30;;;;;;5013839;28;20472;-72
2021/01/14 00:12:01;;;;;;;12.60;4.63;;;4.80;58.60;;;;;;5013551;28;20416;-73
2021/01/14 00:14:27;;;;;;;21.23;5.30;;;4.80;54.50;;;;;;5013709;28;20405;-73
2021/01/14 00:16:52;;;;;;;13.10;3.90;;;4.80;57.30;;;;;;5013923;28;20384;-73
2021/01/14 00:19:18;;;;;;;8.30;2.30;;;4.80;50.30;;;;;;5013796;28;20387;-71
2021/01/14 00:21:44;;;;;;;13.68;2.30;;;4.80;39.60;;;;;;5013432;28;20905;-72
2021/01/14 00:24:10;;;;;;;12.75;2.20;;;4.70;37.10;;;;;;5013775;28;20905;-73
2021/01/14 00:26:36;;;;;;;10.75;2.03;;;4.70;35.90;;;;;;5013650;28;20393;-72
2021/01/14 00:29:05;;;;;;;7.47;2.20;;;4.70;35.10;;;;;;5015954;28;20381;-73
2021/01/14 00:31:30;;;;;;;9.45;1.77;;;4.70;34.10;;;;;;5017839;28;20392;-71
2021/01/14 00:33:56;;;;;;;11.90;1.87;;;4.70;33.40;;;;;;5016275;28;20778;-72
2021/01/14 00:36:32;;;;;;;5.83;1.80;;;4.70;31.60;;;;;;5017514;28;20388;-72
2021/01/14 00:39:00;;;;;;;7.60;2.00;;;4.70;31.80;;;;;;5017475;28;20512;-72
2021/01/14 00:41:27;;;;;;;10.82;2.20;;;4.60;30.90;;;;;;5017266;28;20471;-72
2021/01/14 00:43:53;;;;;;;6.70;1.88;;;4.60;31.10;;;;;;5016357;28;20403;-72
2021/01/14 00:46:20;;;;;;;9.60;1.80;;;4.60;30.50;;;;;;5017356;28;20874;-72
2021/01/14 00:48:46;;;;;;;6.80;1.70;;;4.60;30.70;;;;;;5018154;28;20400;-72
2021/01/14 00:51:12;;;;;;;11.25;1.75;;;4.60;31.40;;;;;;5018656;28;20400;-73
2021/01/14 00:53:39;;;;;;;6.35;1.80;;;4.60;29.70;;;;;;5015140;28;20918;-73
2021/01/14 00:56:05;;;;;;;8.38;1.90;;;4.60;30.30;;;;;;5016594;28;20831;-72
2021/01/14 00:58:32;;;;;;;10.23;2.43;;;4.60;30.50;;;;;;5020778;28;20457;-74
2021/01/14 01:00:58;;;;;;;8.63;1.75;;;4.60;30.40;;;;;;5015257;28;20416;-74
2021/01/14 01:03:23;;;;;;;8.82;1.55;;;4.60;30.90;;;;;;5014915;28;20416;-73
2021/01/14 01:05:49;;;;;;;8.15;2.13;;;4.50;29.90;;;;;;5016002;28;20381;-72
2021/01/14 01:08:14;;;;;;;11.18;1.85;;;4.50;31.20;;;;;;5016229;28;20428;-72
2021/01/14 01:10:40;;;;;;;8.60;2.40;;;4.50;30.70;;;;;;5015877;28;20502;-74
2021/01/14 01:13:05;;;;;;;8.40;1.90;;;4.50;30.60;;;;;;5015958;28;20467;-73
2021/01/14 01:15:31;;;;;;;7.53;1.80;;;4.40;30.70;;;;;;5015701;28;20468;-73
2021/01/14 01:17:56;;;;;;;9.37;2.00;;;4.40;31.00;;;;;;5013022;28;20388;-71
2021/01/14 01:20:22;;;;;;;8.55;1.95;;;4.50;31.20;;;;;;5012679;28;20384;-72
2021/01/14 01:22:56;;;;;;;9.73;2.25;;;4.50;31.70;;;;;;5015585;28;20404;-73
2021/01/14 01:25:21;;;;;;;14.35;2.10;;;4.50;31.10;;;;;;5017153;28;20794;-72
2021/01/14 01:27:47;;;;;;;9.03;1.87;;;4.40;32.20;;;;;;5017106;28;20476;-72
2021/01/14 01:30:13;;;;;;;5.07;2.03;;;4.40;32.70;;;;;;5016684;28;20894;-72
2021/01/14 01:32:39;;;;;;;9.15;2.33;;;4.40;33.30;;;;;;5017927;28;20416;-73
2021/01/14 01:35:05;;;;;;;9.73;2.30;;;4.40;33.90;;;;;;5018775;28;20392;-72
2021/01/14 01:37:31;;;;;;;8.05;2.15;;;4.40;34.40;;;;;;5012276;28;20389;-72
2021/01/14 01:39:58;;;;;;;8.77;2.67;;;4.40;34.80;;;;;;5012150;28;20870;-72
2021/01/14 01:42:23;;;;;;;14.13;2.72;;;4.40;35.10;;;;;;5011991;28;20424;-74
2021/01/14 01:44:49;;;;;;;7.13;2.50;;;4.40;35.10;;;;;;5012104;28;20482;-73
2021/01/14 01:47:15;;;;;;;11.80;2.70;;;4.40;35.20;;;;;;5012320;28;20434;-73
2021/01/14 01:49:41;;;;;;;11.10;3.00;;;4.40;35.50;;;;;;5011731;28;20393;-73
2021/01/14 01:52:07;;;;;;;11.15;2.80;;;4.40;35.20;;;;;;5011826;28;20499;-73
2021/01/14 01:54:34;;;;;;;13.97;2.80;;;4.40;35.40;;;;;;5011960;28;20841;-73
2021/01/14 01:57:02;;;;;;;9.45;2.50;;;4.30;34.90;;;;;;5011916;28;20435;-73
2021/01/14 01:59:30;;;;;;;11.75;2.42;;;4.30;35.70;;;;;;5011580;28;20436;-73
2021/01/14 02:01:55;;;;;;;7.40;2.20;;;4.20;34.80;;;;;;5010855;28;20408;-73
2021/01/14 02:04:21;;;;;;;14.87;2.80;;;4.20;35.80;;;;;;5011790;28;20388;-72
2021/01/14 02:06:58;;;;;;;13.27;2.53;;;4.20;35.70;;;;;;5011420;28;20964;-72
2021/01/14 02:09:25;;;;;;;10.85;3.15;;;4.10;36.00;;;;;;5010368;28;20802;-72
2021/01/14 02:12:04;;;;;;;12.13;2.83;;;4.10;36.20;;;;;;5011787;28;20393;-73
2021/01/14 02:14:34;;;;;;;11.25;2.35;;;4.00;36.20;;;;;;5011099;28;20902;-72
2021/01/14 02:16:59;;;;;;;12.93;2.40;;;4.00;36.40;;;;;;5011790;28;20446;-72
2021/01/14 02:19:37;;;;;;;13.30;2.58;;;3.90;36.70;;;;;;5011330;28;20789;-73
2021/01/14 02:22:22;;;;;;;9.70;2.17;;;3.90;36.30;;;;;;5011421;28;20874;-72
2021/01/14 02:25:16;;;;;;;7.60;2.20;;;3.90;36.20;;;;;;5015859;28;20392;-72
2021/01/14 02:27:45;;;;;;;8.38;2.05;;;3.90;36.00;;;;;;5012540;28;20754;-72
2021/01/14 02:30:12;;;;;;;6.82;2.00;;;3.80;36.00;;;;;;5016230;28;20392;-72
2021/01/14 02:32:38;;;;;;;8.57;1.90;;;3.80;36.20;;;;;;5020570;28;20400;-72
2021/01/14 02:35:04;;;;;;;7.78;1.60;;;3.80;35.40;;;;;;5019797;28;20392;-72
2021/01/14 02:37:29;;;;;;;7.38;2.10;;;3.80;34.50;;;;;;5013259;28;20396;-77
2021/01/14 02:39:55;;;;;;;10.10;1.90;;;3.80;35.40;;;;;;5015584;28;20384;-71
2021/01/14 02:42:21;;;;;;;6.63;1.80;;;3.80;34.70;;;;;;5019364;28;20400;-73
2021/01/14 02:44:46;;;;;;;11.63;1.90;;;3.90;34.10;;;;;;5018678;28;20397;-74
2021/01/14 02:47:14;;;;;;;9.50;2.13;;;3.90;34.20;;;;;;5021989;28;20390;-73
2021/01/14 02:49:46;;;;;;;8.13;2.17;;;3.90;34.60;;;;;;5010689;28;20460;-72
2021/01/14 02:52:12;;;;;;;9.43;1.98;;;3.90;34.20;;;;;;5011220;28;20480;-72
2021/01/14 02:54:40;;;;;;;10.57;2.30;;;3.80;34.50;;;;;;5015126;28;20918;-73
2021/01/14 02:57:07;;;;;;;15.27;2.50;;;3.80;35.10;;;;;;5010716;28;20550;-71
2021/01/14 02:59:33;;;;;;;9.40;2.00;;;3.80;34.90;;;;;;5011520;28;20458;-72
2021/01/14 03:01:59;;;;;;;13.07;2.60;;;3.80;34.90;;;;;;5013203;28;20471;-73
2021/01/14 03:04:24;;;;;;;11.37;2.23;;;3.80;35.40;;;;;;5013177;28;20392;-72
2021/01/14 03:06:50;;;;;;;9.53;2.80;;;3.90;35.00;;;;;;5014112;28;20737;-73
2021/01/14 03:09:15;;;;;;;7.23;1.80;;;3.90;35.40;;;;;;5013602;28;20405;-73
2021/01/14 03:11:41;;;;;;;11.75;2.13;;;3.90;35.00;;;;;;5014861;28;20444;-73
2021/01/14 03:14:06;;;;;;;11.77;2.03;;;3.90;35.30;;;;;;5006870;28;20440;-72
2021/01/14 03:16:39;;;;;;;10.63;2.30;;;3.90;35.30;;;;;;4995898;28;20386;-75
2021/01/14 03:19:04;;;;;;;8.45;2.10;;;3.90;36.10;;;;;;4994847;28;20389;-73
2021/01/14 03:21:30;;;;;;;14.10;2.40;;;4.00;35.00;;;;;;5011320;28;20471;-71
2021/01/14 03:23:56;;;;;;;8.43;2.20;;;3.90;35.00;;;;;;5014973;28;20460;-73
2021/01/14 03:26:21;;;;;;;8.65;2.20;;;4.00;34.80;;;;;;5014464;28;20411;-73
2021/01/14 03:28:48;;;;;;;12.52;2.33;;;4.00;34.50;;;;;;5011361;28;20413;-72
2021/01/14 03:31:15;;;;;;;13.25;2.50;;;4.00;34.30;;;;;;5008683;28;20872;-73
2021/01/14 03:33:42;;;;;;;5.28;2.05;;;4.00;34.30;;;;;;5010329;28;20526;-73
2021/01/14 03:36:12;;;;;;;11.60;2.50;;;4.00;33.90;;;;;;5009276;28;20392;-72
2021/01/14 03:38:38;;;;;;;11.52;2.03;;;4.00;34.10;;;;;;5010211;28;20471;-72
2021/01/14 03:41:15;;;;;;;7.20;2.20;;;3.90;36.20;;;;;;5009849;28;20550;-73
2021/01/14 03:43:41;;;;;;;8.43;2.40;;;4.00;34.70;;;;;;5012436;28;20442;-72
2021/01/14 03:46:10;;;;;;;16.23;2.38;;;4.00;34.60;;;;;;5011681;28;20388;-74
2021/01/14 03:48:42;;;;;;;10.85;2.15;;;4.00;34.50;;;;;;5010936;28;20944;-73
2021/01/14 03:51:18;;;;;;;14.32;2.22;;;3.90;35.30;;;;;;5010500;28;20393;-73
2021/01/14 03:53:46;;;;;;;12.18;2.80;;;3.90;35.50;;;;;;5012718;28;20412;-73
2021/01/14 03:56:11;;;;;;;7.40;2.30;;;3.90;35.80;;;;;;5013795;28;20504;-72
2021/01/14 03:58:37;;;;;;;8.48;2.30;;;3.90;36.50;;;;;;5014472;28;21014;-73
2021/01/14 04:01:03;;;;;;;14.50;2.30;;;3.90;36.30;;;;;;5015377;28;20454;-73
2021/01/14 04:03:29;;;;;;;12.60;2.30;;;3.90;36.80;;;;;;5014685;28;20444;-73
2021/01/14 04:05:54;;;;;;;11.90;2.10;;;3.90;36.80;;;;;;5013747;28;20399;-74
2021/01/14 04:08:20;;;;;;;12.43;2.33;;;3.90;36.70;;;;;;5015795;28;20385;-73
2021/01/14 04:10:45;;;;;;;10.63;2.20;;;3.90;36.30;;;;;;5013568;28;20395;-72
2021/01/14 04:13:11;;;;;;;10.23;2.60;;;3.90;36.20;;;;;;5010781;28;20413;-73
2021/01/14 04:15:37;;;;;;;7.95;2.58;;;3.90;35.90;;;;;;4998223;28;20391;-72
2021/01/14 04:18:02;;;;;;;12.67;2.90;;;3.90;36.20;;;;;;5001404;28;20811;-72
2021/01/14 04:20:28;;;;;;;12.90;2.70;;;3.80;36.40;;;;;;5017679;28;20393;-73
2021/01/14 04:22:53;;;;;;;10.10;2.50;;;3.70;37.20;;;;;;5017759;28;20393;-72
2021/01/14 04:25:19;;;;;;;13.45;2.92;;;3.70;37.30;;;;;;5018815;28;20720;-72
2021/01/14 04:27:44;;;;;;;8.52;2.58;;;3.70;37.60;;;;;;5017503;28;20407;-72
2021/01/14 04:30:10;;;;;;;9.98;2.38;;;3.60;37.80;;;;;;5015435;28;20878;-73
2021/01/14 04:32:36;;;;;;;12.47;2.20;;;3.60;38.50;;;;;;5016777;28;20397;-71
2021/01/14 04:35:02;;;;;;;10.30;2.00;;;3.60;38.60;;;;;;5016506;28;20417;-75
2021/01/14 04:37:27;;;;;;;10.32;2.60;;;3.60;38.50;;;;;;5013544;28;20385;-73
2021/01/14 04:39:53;;;;;;;7.63;2.07;;;3.60;38.80;;;;;;5013095;28;20746;-72
2021/01/14 04:42:20;;;;;;;9.17;2.63;;;3.70;38.50;;;;;;5010367;28;20397;-73
2021/01/14 04:44:45;;;;;;;11.05;2.80;;;3.60;38.50;;;;;;5012160;28;20392;-72
2021/01/14 04:47:15;;;;;;;8.23;2.38;;;3.60;39.80;;;;;;5013242;28;20468;-73
2021/01/14 04:49:44;;;;;;;10.37;2.30;;;3.70;39.10;;;;;;5013114;28;20392;-73
2021/01/14 04:52:17;;;;;;;6.90;2.30;;;3.80;38.70;;;;;;5013341;28;20392;-72
2021/01/14 04:54:43;;;;;;;13.35;2.70;;;3.80;37.90;;;;;;5013216;28;20483;-72
2021/01/14 04:57:18;;;;;;;6.72;2.42;;;3.80;38.40;;;;;;5012547;28;20416;-73
2021/01/14 04:59:53;;;;;;;13.05;3.00;;;3.80;38.30;;;;;;5012727;28;20452;-71
2021/01/14 05:02:24;;;;;;;8.05;2.17;;;3.70;39.20;;;;;;5012882;28;20388;-72
2021/01/14 05:04:51;;;;;;;12.10;2.63;;;3.80;38.20;;;;;;5012938;28;20395;-72
2021/01/14 05:07:29;;;;;;;9.10;3.00;;;3.80;38.30;;;;;;5011429;28;20954;-72
2021/01/14 05:10:00;;;;;;;8.80;2.73;;;3.90;38.40;;;;;;5012645;28;20399;-73
2021/01/14 05:12:25;;;;;;;14.02;2.95;;;3.80;38.00;;;;;;5010116;28;20475;-74
2021/01/14 05:14:51;;;;;;;4.35;2.33;;;3.70;38.70;;;;;;5008579;28;20500;-71
2021/01/14 05:17:16;;;;;;;12.70;2.60;;;3.60;39.50;;;;;;5011441;28;20962;-71
2021/01/14 05:19:42;;;;;;;14.10;2.47;;;3.60;39.30;;;;;;5010966;28;20391;-73
2021/01/14 05:22:08;;;;;;;6.60;2.10;;;3.70;39.30;;;;;;5012439;28;20391;-73
2021/01/14 05:24:33;;;;;;;11.00;2.30;;;3.70;38.70;;;;;;5011618;28;20404;-73
2021/01/14 05:26:59;;;;;;;17.80;2.60;;;3.70;38.70;;;;;;5012208;28;20450;-73
2021/01/14 05:29:24;;;;;;;13.57;3.03;;;3.50;39.50;;;;;;5015285;28;20389;-73
2021/01/14 05:31:50;;;;;;;12.32;2.40;;;3.70;38.70;;;;;;5017779;28;20396;-73
2021/01/14 05:34:17;;;;;;;9.80;2.42;;;3.70;38.70;;;;;;5016781;28;20409;-72
2021/01/14 05:37:03;;;;;;;13.30;2.50;;;3.60;38.80;;;;;;5016524;28;20475;-73
2021/01/14 05:39:30;;;;;;;14.25;2.50;;;3.50;39.90;;;;;;5012171;28;20424;-73
2021/01/14 05:41:56;;;;;;;6.25;2.35;;;3.50;39.70;;;;;;5014189;28;20397;-72
2021/01/14 05:44:39;;;;;;;10.30;2.30;;;3.50;40.40;;;;;;5012303;28;20443;-73
2021/01/14 05:47:37;;;;;;;9.85;2.60;;;3.50;40.30;;;;;;5011767;28;20412;-73
2021/01/14 05:50:08;;;;;;;15.43;2.47;;;3.50;40.50;;;;;;4978452;28;20404;-73
2021/01/14 05:52:33;;;;;;;12.23;2.60;;;3.40;40.90;;;;;;5011677;28;20747;-73
2021/01/14 05:55:07;;;;;;;15.10;2.10;;;3.40;41.00;;;;;;5009576;28;20400;-72
2021/01/14 05:57:35;;;;;;;8.93;2.53;;;3.40;41.10;;;;;;5011454;28;20395;-73
2021/01/14 06:00:08;;;;;;;7.18;2.30;;;3.50;41.00;;;;;;5011514;28;20389;-72
2021/01/14 06:02:34;;;;;;;6.53;2.67;;;3.50;40.50;;;;;;5011923;28;20408;-73
2021/01/14 06:05:00;;;;;;;11.60;2.80;;;3.50;40.70;;;;;;5011743;28;20944;-73
2021/01/14 06:07:40;;;;;;;11.10;3.00;;;3.60;41.20;;;;;;5010897;28;20475;-73
2021/01/14 06:10:07;;;;;;;11.82;3.10;;;3.50;41.10;;;;;;5011160;28;20821;-74
2021/01/14 06:12:33;;;;;;;17.63;3.22;;;3.40;42.10;;;;;;5012329;28;20392;-71
2021/01/14 06:14:59;;;;;;;7.22;2.20;;;3.50;41.60;;;;;;5000371;28;20777;-73
2021/01/14 06:17:34;;;;;;;8.70;2.20;;;3.60;39.70;;;;;;4996998;28;20386;-73
2021/01/14 06:20:07;;;;;;;10.00;2.90;;;3.60;40.70;;;;;;4998009;28;20397;-73
2021/01/14 06:22:36;;;;;;;11.82;2.40;;;3.40;42.50;;;;;;5014415;28;20399;-75
2021/01/14 06:25:04;;;;;;;13.93;2.90;;;3.40;41.30;;;;;;5011860;28;20381;-73
2021/01/14 06:27:31;;;;;;;10.07;2.38;;;3.40;41.50;;;;;;5010602;28;20472;-72
2021/01/14 06:30:09;;;;;;;22.00;2.50;;;3.50;41.30;;;;;;5010926;28;20397;-73
2021/01/14 06:32:38;;;;;;;7.00;2.75;;;3.70;40.00;;;;;;4991797;28;20429;-73
2021/01/14 06:35:06;;;;;;;10.40;2.50;;;3.80;38.30;;;;;;4991612;28;20422;-72
2021/01/14 06:37:36;;;;;;;9.57;2.40;;;3.70;38.20;;;;;;4994940;28;20386;-72
2021/01/14 06:40:04;;;;;;;7.82;2.50;;;3.70;38.90;;;;;;5014248;28;20393;-73
2021/01/14 06:42:31;;;;;;;8.85;2.65;;;3.70;39.20;;;;;;5013741;28;20389;-73
2021/01/14 06:45:03;;;;;;;12.27;2.70;;;3.70;40.20;;;;;;5011070;28;20458;-71
2021/01/14 06:47:42;;;;;;;9.80;2.60;;;3.50;41.30;;;;;;5010455;28;20451;-74
2021/01/14 06:50:24;;;;;;;12.50;2.60;;;3.60;40.60;;;;;;5010032;28;20488;-73
2021/01/14 06:53:09;;;;;;;9.40;2.37;;;3.70;39.50;;;;;;5010056;28;20424;-72
2021/01/14 06:55:36;;;;;;;7.55;2.50;;;3.70;39.20;;;;;;5010503;28;20373;-72
2021/01/14 06:58:11;;;;;;;13.60;2.90;;;3.80;39.80;;;;;;5010742;28;20384;-71
2021/01/14 07:00:43;;;;;;;9.05;2.30;;;3.70;39.40;;;;;;5010191;28;20389;-72
2021/01/14 07:03:20;;;;;;;10.02;2.67;;;3.70;39.50;;;;;;5010704;28;20866;-73
2021/01/14 07:06:03;;;;;;;9.07;3.10;;;3.70;38.80;;;;;;5010600;28;20459;-72
2021/01/14 07:08:32;;;;;;;11.80;3.25;;;3.70;39.90;;;;;;5010330;28;20406;-73
2021/01/14 07:11:01;;;;;;;13.65;2.88;;;3.50;40.70;;;;;;5012146;28;20385;-73
2021/01/14 07:13:46;;;;;;;14.07;2.42;;;3.60;40.60;;;;;;5006497;28;20561;-73
2021/01/14 07:16:16;;;;;;;8.50;2.60;;;3.70;39.40;;;;;;4990794;28;20458;-71
2021/01/14 07:18:44;;;;;;;13.07;3.27;;;3.80;40.10;;;;;;4990594;28;20452;-72
2021/01/14 07:21:24;;;;;;;11.27;3.20;;;3.50;40.70;;;;;;5003033;28;20751;-72
2021/01/14 07:24:20;;;;;;;7.60;2.90;;;3.40;42.70;;;;;;5009496;28;20404;-73
2021/01/14 07:26:58;;;;;;;14.48;2.47;;;3.40;42.10;;;;;;5011362;28;20407;-74
2021/01/14 07:29:27;;;;;;;10.85;2.35;;;3.80;39.30;;;;;;5011109;28;20913;-72
2021/01/14 07:31:55;;;;;;;11.60;2.78;;;3.80;39.50;;;;;;5014508;28;20397;-72
2021/01/14 07:34:43;;;;;;;9.00;2.27;;;3.80;38.50;;;;;;5014352;28;20424;-72
2021/01/14 07:37:14;;;;;;;14.82;3.35;;;3.80;38.80;;;;;;5013064;28;20467;-71
2021/01/14 07:39:49;;;;;;;11.25;2.85;;;3.60;40.20;;;;;;5013585;28;20396;-73
2021/01/14 07:42:30;;;;;;;7.95;2.78;;;3.70;39.90;;;;;;5013082;28;20385;-74
2021/01/14 07:45:00;;;;;;;9.40;2.97;;;3.80;38.70;;;;;;5013901;28;20389;-75
2021/01/14 07:47:28;;;;;;;11.03;3.30;;;3.80;39.20;;;;;;5010212;28;20409;-76
2021/01/14 07:49:55;;;;;;;11.70;3.03;;;3.80;38.90;;;;;;5014967;28;20736;-74
2021/01/14 07:52:34;;;;;;;14.85;2.90;;;3.80;39.20;;;;;;5014990;28;20893;-74
2021/01/14 07:55:07;;;;;;;6.03;2.53;;;3.70;38.40;;;;;;5018182;28;20758;-73
2021/01/14 07:57:49;;;;;;;9.95;2.60;;;3.60;39.40;;;;;;5013654;28;20380;-77
2021/01/14 08:00:24;;;;;;;12.68;3.60;;;3.70;39.30;;;;;;5018482;28;20480;-72
2021/01/14 08:03:19;;;;;;;11.13;3.00;;;3.60;39.50;;;;;;5019228;28;20832;-74
2021/01/14 08:05:58;;;;;;;11.73;2.70;;;3.60;39.10;;;;;;5015667;28;20405;-73
2021/01/14 08:08:26;;;;;;;15.13;2.85;;;3.60;39.60;;;;;;5021834;28;20948;-73
2021/01/14 08:11:17;;;;;;;9.60;3.00;;;3.50;40.80;;;;;;5018418;28;20459;-71
2021/01/14 08:14:23;;;;;;;14.55;2.95;;;3.60;39.70;;;;;;5011884;28;21024;-72
2021/01/14 08:16:52;;;;;;;13.70;3.00;;;3.60;40.10;;;;;;5013167;28;20539;-73
2021/01/14 08:19:28;;;;;;;10.45;3.10;;;3.60;40.20;;;;;;5011325;28;20436;-73
2021/01/14 08:22:02;;;;;;;7.15;3.05;;;3.60;40.80;;;;;;5011470;28;20932;-72
2021/01/14 08:24:40;;;;;;;10.98;3.28;;;3.60;41.20;;;;;;5013326;28;20392;-72
2021/01/14 08:27:21;;;;;;;16.88;3.92;;;3.80;39.50;;;;;;5001891;28;20397;-72
2021/01/14 08:30:00;;;;;;;14.83;2.97;;;3.70;40.70;;;;;;5013007;28;20392;-71
2021/01/14 08:32:28;;;;;;;14.30;4.10;;;3.90;38.60;;;;;;5012453;28;20831;-72
2021/01/14 08:34:56;;;;;;;14.45;3.60;;;3.90;38.10;;;;;;5012979;28;20424;-71
2021/01/14 08:37:46;;;;;;;14.32;3.47;;;3.90;39.00;;;;;;5013092;28;20415;-76
2021/01/14 08:40:14;;;;;;;13.17;3.63;;;3.90;38.60;;;;;;5012493;28;20428;-72
2021/01/14 08:42:41;;;;;;;11.98;3.80;;;3.80;39.20;;;;;;5011877;28;20408;-73
2021/01/14 08:45:12;;;;;;;17.77;4.55;;;3.90;39.50;;;;;;5012833;28;20480;-73
2021/01/14 08:47:59;;;;;;;13.27;3.50;;;3.80;40.30;;;;;;5012027;28;20393;-73
2021/01/14 08:50:43;;;;;;;13.20;4.00;;;3.90;39.20;;;;;;5012079;28;20721;-71
2021/01/14 08:53:17;;;;;;;11.02;3.20;;;3.80;40.70;;;;;;5012672;28;20782;-72
2021/01/14 08:55:43;;;;;;;11.95;3.60;;;3.90;39.90;;;;;;5012268;28;20397;-73
2021/01/14 08:58:09;;;;;;;8.97;3.73;;;4.20;38.10;;;;;;5012905;28;20948;-74
2021/01/14 09:00:39;;;;;;;12.20;4.05;;;4.10;38.60;;;;;;5015516;28;20397;-76
2021/01/14 09:03:06;;;;;;;16.27;3.80;;;4.00;39.80;;;;;;5020166;28;20412;-73
2021/01/14 09:05:32;;;;;;;18.35;4.00;;;4.00;39.50;;;;;;5021748;28;20392;-74
2021/01/14 09:08:04;;;;;;;8.90;3.70;;;3.90;39.20;;;;;;5020942;28;20405;-73
2021/01/14 09:10:50;;;;;;;8.57;3.90;;;4.00;38.40;;;;;;5019427;28;20866;-74
2021/01/14 09:13:29;;;;;;;10.63;3.00;;;4.10;37.60;;;;;;5014061;28;20459;-74
2021/01/14 09:15:57;;;;;;;9.98;3.22;;;4.30;35.20;;;;;;5009211;28;20482;-72
2021/01/14 09:18:34;;;;;;;14.95;3.42;;;4.30;35.00;;;;;;5012454;28;20405;-73
2021/01/14 09:21:00;;;;;;;10.52;3.17;;;4.30;36.10;;;;;;5012313;28;20423;-75
2021/01/14 09:23:35;;;;;;;8.25;2.95;;;4.10;36.20;;;;;;5012069;28;20491;-73
2021/01/14 09:26:09;;;;;;;10.02;3.10;;;4.20;36.30;;;;;;5011946;28;20392;-73
2021/01/14 09:28:34;;;;;;;6.95;2.90;;;4.20;34.90;;;;;;5018202;28;20408;-73
2021/01/14 09:31:03;;;;;;;8.13;3.50;;;4.20;35.80;;;;;;5015312;28;20579;-72
2021/01/14 09:33:31;;;;;;;6.53;2.50;;;4.10;36.70;;;;;;5015734;28;20411;-72
2021/01/14 09:36:07;;;;;;;10.50;3.03;;;4.20;36.00;;;;;;5014998;28;20448;-72
2021/01/14 09:38:43;;;;;;;18.73;6.13;;;4.20;35.00;;;;;;5014420;28;20542;-74
2021/01/14 09:41:10;;;;;;;16.13;4.28;;;4.10;35.10;;;;;;5013691;28;20954;-72
2021/01/14 09:43:39;;;;;;;9.65;3.50;;;4.20;35.00;;;;;;5013558;28;20393;-72
2021/01/14 09:46:09;;;;;;;8.60;3.67;;;4.20;35.20;;;;;;5012910;28;20435;-72
2021/01/14 09:48:36;;;;;;;11.15;3.80;;;4.00;36.60;;;;;;5013589;28;20424;-72
2021/01/14 09:51:07;;;;;;;8.40;3.70;;;4.10;36.30;;;;;;5014519;28;20408;-72
2021/01/14 09:53:33;;;;;;;12.88;4.78;;;4.10;35.80;;;;;;5015915;28;20416;-71
2021/01/14 09:56:02;;;;;;;11.82;5.70;;;4.10;36.30;;;;;;5016009;28;20802;-72
2021/01/14 09:58:30;;;;;;;10.57;7.40;;;4.30;34.30;;;;;;5016482;28;20389;-74
2021/01/14 10:00:59;;;;;;;19.60;9.47;;;4.30;33.60;;;;;;5014242;28;20487;-74
2021/01/14 10:03:26;;;;;;;15.20;9.40;;;4.20;34.10;;;;;;5014189;28;20458;-72
2021/01/14 10:05:57;;;;;;;21.88;11.52;;;4.20;33.90;;;;;;5013942;28;20446;-73
2021/01/14 10:08:24;;;;;;;20.00;10.77;;;4.10;35.40;;;;;;5016497;28;20477;-73
2021/01/14 10:10:50;;;;;;;16.45;9.63;;;4.10;34.70;;;;;;5013176;28;20393;-73
2021/01/14 10:13:16;;;;;;;16.70;9.60;;;4.30;33.90;;;;;;5008793;28;20736;-74
2021/01/14 10:15:43;;;;;;;13.45;8.80;;;4.40;33.10;;;;;;4993789;28;20809;-73
2021/01/14 10:18:29;;;;;;;17.63;8.52;;;4.40;33.90;;;;;;5010872;28;20397;-73
2021/01/14 10:21:01;;;;;;;15.85;9.80;;;4.40;32.70;;;;;;5000530;28;20450;-74
2021/01/14 10:23:27;;;;;;;15.30;9.20;;;4.30;34.20;;;;;;5014863;28;20393;-75
2021/01/14 10:25:54;;;;;;;13.00;8.57;;;4.40;33.40;;;;;;5013515;28;20397;-74
2021/01/14 10:28:21;;;;;;;13.45;9.35;;;4.40;33.50;;;;;;5016448;28;20416;-74
2021/01/14 10:30:47;;;;;;;13.50;9.02;;;4.30;34.70;;;;;;5017191;28;20416;-74
2021/01/14 10:33:13;;;;;;;18.70;9.27;;;4.30;34.60;;;;;;5017500;28;20862;-73
2021/01/14 10:35:38;;;;;;;13.97;9.40;;;4.40;34.20;;;;;;5019249;28;20397;-73
2021/01/14 10:38:05;;;;;;;23.92;9.30;;;4.20;35.30;;;;;;5020309;28;20389;-73
2021/01/14 10:40:37;;;;;;;10.73;6.17;;;4.20;34.60;;;;;;5011003;28;20397;-73
2021/01/14 10:43:03;;;;;;;12.10;8.10;;;4.10;35.00;;;;;;5011355;28;20389;-73
2021/01/14 10:45:31;;;;;;;15.23;8.20;;;3.90;33.70;;;;;;5011131;28;20886;-74
2021/01/14 10:48:11;;;;;;;14.43;7.65;;;3.90;35.00;;;;;;5010475;28;20404;-74
2021/01/14 10:50:46;;;;;;;15.07;6.40;;;3.90;34.10;;;;;;4990676;28;20398;-74
2021/01/14 10:53:22;;;;;;;11.63;5.90;;;4.10;32.40;;;;;;4991102;28;20956;-74
2021/01/14 10:56:06;;;;;;;11.13;6.90;;;4.20;32.10;;;;;;4990787;28;20393;-73
2021/01/14 10:58:33;;;;;;;13.73;6.55;;;4.10;32.50;;;;;;4990727;28;20395;-73
2021/01/14 11:00:59;;;;;;;9.68;5.82;;;4.30;32.10;;;;;;4991043;28;20737;-73
2021/01/14 11:03:27;;;;;;;13.30;6.07;;;4.20;32.20;;;;;;4999482;28;20396;-74
2021/01/14 11:05:53;;;;;;;15.60;6.38;;;4.20;32.10;;;;;;5010413;28;20392;-73
2021/01/14 11:08:41;;;;;;;12.73;7.65;;;4.10;32.70;;;;;;5009817;28;20403;-73
2021/01/14 11:11:12;;;;;;;9.85;6.82;;;4.10;33.50;;;;;;5010067;28;20495;-72
2021/01/14 11:13:38;;;;;;;12.90;6.47;;;4.30;32.10;;;;;;5004414;28;20887;-73
2021/01/14 11:16:05;;;;;;;11.17;6.67;;;4.50;31.90;;;;;;5010444;28;20392;-74
2021/01/14 11:18:34;;;;;;;17.35;8.20;;;4.40;31.60;;;;;;5018077;28;20403;-76
2021/01/14 11:21:00;;;;;;;16.50;8.00;;;4.30;32.80;;;;;;5019327;28;20850;-75
2021/01/14 11:23:25;;;;;;;9.68;6.40;;;4.30;32.80;;;;;;5017994;28;20439;-72
2021/01/14 11:25:51;;;;;;;9.80;6.10;;;4.40;32.20;;;;;;5008607;28;20451;-74
2021/01/14 11:28:16;;;;;;;10.23;6.07;;;4.50;30.80;;;;;;5010285;28;20389;-72
2021/01/14 11:30:42;;;;;;;11.93;7.60;;;4.50;30.60;;;;;;5007155;28;20909;-72
2021/01/14 11:33:08;;;;;;;15.27;7.30;;;4.40;31.50;;;;;;5012185;28;20404;-72
2021/01/14 11:35:33;;;;;;;14.33;6.80;;;4.40;32.00;;;;;;5014024;28;20423;-73
2021/01/14 11:37:59;;;;;;;12.57;6.60;;;4.40;32.30;;;;;;5013913;28;20915;-72
2021/01/14 11:40:24;;;;;;;10.30;7.00;;;4.50;31.60;;;;;;5014102;28;20389;-72
2021/01/14 11:42:50;;;;;;;11.17;6.23;;;4.60;31.80;;;;;;5014291;28;20742;-74
2021/01/14 11:45:16;;;;;;;10.00;6.00;;;4.50;32.30;;;;;;5013657;28;20401;-73
2021/01/14 11:47:42;;;;;;;12.57;6.30;;;4.50;31.30;;;;;;5016527;28;20389;-73
2021/01/14 11:50:08;;;;;;;11.18;5.97;;;4.60;31.50;;;;;;5016300;28;20431;-72
2021/01/14 11:52:34;;;;;;;11.48;6.20;;;4.60;31.30;;;;;;5016670;28;20392;-72
2021/01/14 11:54:59;;;;;;;11.63;5.82;;;4.70;31.20;;;;;;5015989;28;20405;-73
2021/01/14 11:57:29;;;;;;;13.95;5.55;;;4.90;29.70;;;;;;5015990;28;20387;-74
2021/01/14 11:59:55;;;;;;;11.40;5.80;;;4.90;29.10;;;;;;5015528;28;20381;-74
2021/01/14 12:02:21;;;;;;;10.50;5.70;;;4.90;29.60;;;;;;5016058;28;20428;-72
2021/01/14 12:04:47;;;;;;;11.00;5.65;;;4.80;30.60;;;;;;5013876;28;20482;-73
2021/01/14 12:07:12;;;;;;;6.18;4.60;;;5.00;30.10;;;;;;5013523;28;20451;-75
2021/01/14 12:09:38;;;;;;;9.30;5.97;;;4.90;30.20;;;;;;5013868;28;20408;-73
2021/01/14 12:12:04;;;;;;;7.13;4.78;;;4.90;30.00;;;;;;5013777;28;20400;-73
2021/01/14 12:14:30;;;;;;;13.07;5.47;;;5.00;28.70;;;;;;5001324;28;20552;-73
2021/01/14 12:16:56;;;;;;;11.73;5.70;;;4.80;29.90;;;;;;5013506;28;20458;-72
2021/01/14 12:19:21;;;;;;;6.60;4.00;;;4.70;31.00;;;;;;5013646;28;20471;-75
2021/01/14 12:21:59;;;;;;;10.05;5.65;;;4.90;29.80;;;;;;5015437;28;20487;-73
2021/01/14 12:24:25;;;;;;;7.60;4.85;;;4.90;30.00;;;;;;5016363;28;20385;-72
2021/01/14 12:26:50;;;;;;;7.78;4.75;;;4.80;30.60;;;;;;5016053;28;20395;-73
2021/01/14 12:29:16;;;;;;;5.95;4.25;;;4.80;30.50;;;;;;5013011;28;20439;-72
2021/01/14 12:31:41;;;;;;;10.32;4.47;;;5.00;30.40;;;;;;5017257;28;20452;-72
2021/01/14 12:34:07;;;;;;;6.75;3.70;;;5.00;28.50;;;;;;5015871;28;20475;-74
2021/01/14 12:36:33;;;;;;;8.60;4.57;;;5.10;27.90;;;;;;5013061;28;20742;-71
2021/01/14 12:38:58;;;;;;;9.38;6.03;;;5.10;27.90;;;;;;5012967;28;20732;-72
2021/01/14 12:41:31;;;;;;;7.57;4.43;;;5.00;28.90;;;;;;5013202;28;20403;-73
2021/01/14 12:43:56;;;;;;;118.68;71.15;;;5.10;28.50;;;;;;5012178;28;20397;-71
2021/01/14 12:46:30;;;;;;;39.60;21.00;;;5.20;31.60;;;;;;5012843;28;20412;-72
2021/01/14 12:48:56;;;;;;;71.18;36.75;;;5.50;28.70;;;;;;5014841;28;20765;-73
2021/01/14 12:51:21;;;;;;;33.72;18.02;;;5.60;31.60;;;;;;5015182;28;20417;-73
2021/01/14 12:53:47;;;;;;;110.60;60.03;;;5.70;29.60;;;;;;5014274;28;20572;-72
2021/01/14 12:56:16;;;;;;;110.75;58.00;;;5.70;30.60;;;;;;5012512;28;20393;-73
2021/01/14 12:58:42;;;;;;;9.48;4.40;;;5.70;32.50;;;;;;5011674;28;20839;-72
2021/01/14 13:01:07;;;;;;;5.45;3.80;;;5.60;27.10;;;;;;5012762;28;20570;-71
2021/01/14 13:03:33;;;;;;;11.65;4.00;;;5.40;25.80;;;;;;5012748;28;20479;-74